Staten Island, NY

3:58 PM EST on January 18, 2017 (GMT -0500)
MBGNN4 | | Change Station

Elev 0 ft 40.64 °N, 74.14 °W | Updated 50 minutes ago

Overcast
Overcast
41.0 °F
Feels Like 41 °F
N
-
Wind Variable Wind from North

Today
High -- | Low -- °F
--% Chance of Precip.
Yesterday
High -- | Low -- °F
Precip. -- in
Pressure 29.96 in
Visibility 10.0 miles
Clouds Few 900 ft
Mostly Cloudy 1700 ft
Overcast 8000 ft
Windchill 41 °F
Dew Point Not available.
Humidity Not available.
Rainfall 0.26 in
Snow Depth Not available.
7:16 AM 4:57 PM
Waning Gibbous, 60% visible
METAR KEWR 182051Z 02010KT 10SM FEW009 BKN017 OVC080 06/03 A2996 RMK AO2 SLP144 T00560033 51012
Pressure 29.96 in
Visibility 10.0 miles
Clouds Few 900 ft
Mostly Cloudy 1700 ft
Overcast 8000 ft
Windchill 41 °F
Dew Point Not available.
Humidity Not available.
Rainfall 0.26 in
Snow Depth Not available.
7:16 AM 4:57 PM
Waning Gibbous, 60% visible
METAR KEWR 182051Z 02010KT 10SM FEW009 BKN017 OVC080 06/03 A2996 RMK AO2 SLP144 T00560033 51012

Get Your Daily Forecast Email!

Thanks for signing up!

Be on the lookout for a verification email in your inbox.

You'll start receiving the daily forecast at 8 AM.

×

10-Day Weather Forecast

Almanac

Astronomy

Jan. 18, 2017 Rise Set
Actual Time
Civil Twilight
Nautical Twilight
Astronomical Twilight
Moon
Length of Visible Light
Length of Day
Tomorrow will be .
, % of the Moon is Illuminated

Today's Extremes

State Highs State Lows

Community

WunderPhotos

Upload Photos

1,962,540 photos uploaded!

WunderBlog® & News

Nearby

Air Quality

  Air Quality AQ Index Pollutant
Not available.

Snow Depth

Station Depth Elevation

Earthquake Activity

City Distance Mag. Time & Date
Minimum magnitude displayed is 2.5.

Coastal Water Temperatures

Place Temperature

Stations

Nearby Weather Stations

Station Location Temp. Windchill Dew Point Humidity Wind Precip. Elev Updated Type
                   

Watches & Warnings

There are currently no watches in effect.